Time;durP1;ratioP1;P1;durP2;ratioP2;P2;SDS_P1;SDS_P2;PMS_P1;PMS_P2;Temp;Humidity;BMP_temperature;BMP_pressure;BME280_temperature;BME280_humidity;BME280_pressure;Samples;Min_cycle;Max_cycle;Signal;HPM_P1;HPM_P2
2021/07/17 00:00:47;;;;;;;8.00;5.00;;;;;;;21.20;70.49;93239.94;6211390;22;20020;-92
2021/07/17 00:03:14;;;;;;;9.13;5.10;;;;;;;20.37;70.27;93113.16;6227695;22;20294;-92
2021/07/17 00:06:09;;;;;;;7.63;4.82;;;;;;;20.43;70.37;93133.16;6193747;22;20037;-92
2021/07/17 00:08:50;;;;;;;6.93;4.35;;;;;;;20.58;70.80;93161.69;6185964;22;20150;-91
2021/07/17 00:11:19;;;;;;;5.32;4.80;;;;;;;20.51;70.51;93148.22;6240363;22;20435;-91
2021/07/17 00:13:54;;;;;;;6.25;5.20;;;;;;;20.51;70.87;93150.91;6255098;22;20138;-92
2021/07/17 00:16:26;;;;;;;;;;;;;;;22.22;70.69;93401.56;6187065;23;20024;-92
2021/07/17 00:18:54;;;;;;;6.35;5.30;;;;;;;21.52;71.09;93309.00;6245258;22;19914;-91
2021/07/17 00:21:41;;;;;;;6.05;5.28;;;;;;;19.97;71.72;93103.81;6272552;22;20497;-92
2021/07/17 00:24:06;;;;;;;6.60;5.45;;;;;;;21.15;72.09;93281.34;6262886;22;20015;-91
2021/07/17 00:26:45;;;;;;;7.47;5.72;;;;;;;20.05;71.65;93102.00;6260740;22;20786;-91
2021/07/17 00:29:11;;;;;;;10.90;4.78;;;;;;;20.28;72.04;93149.03;6261253;22;20058;-92
2021/07/17 00:31:59;;;;;;;;;;;;;;;;;;;;;
2021/07/17 00:34:31;;;;;;;7.05;5.25;;;;;;;20.77;72.22;93234.81;6249735;22;20053;-93
2021/07/17 00:37:19;;;;;;;6.30;5.70;;;;;;;20.12;71.91;93137.75;6250204;22;20026;-92
2021/07/17 00:39:44;;;;;;;6.97;5.55;;;;;;;21.72;71.96;93398.34;6262980;22;20023;-92
2021/07/17 00:42:15;;;;;;;7.22;5.50;;;;;;;21.84;71.72;93384.66;6247214;22;20125;-90
2021/07/17 00:45:02;;;;;;;6.35;5.65;;;;;;;21.12;71.63;93272.06;6263644;22;20015;-91
2021/07/17 00:47:39;;;;;;;8.75;6.03;;;;;;;20.46;71.96;93207.56;6264881;22;20008;-92
2021/07/17 00:50:28;;;;;;;8.20;5.97;;;;;;;19.83;72.18;93098.28;6263322;22;20143;-93
2021/07/17 00:53:04;;;;;;;10.70;6.03;;;;;;;19.79;72.40;93110.88;6245741;22;20088;-93
2021/07/17 00:55:37;;;;;;;7.57;5.57;;;;;;;21.63;72.72;93389.78;6293300;22;20010;-92
2021/07/17 00:58:07;;;;;;;7.03;5.70;;;;;;;19.90;72.84;93114.44;6215215;22;20033;-91
2021/07/17 01:00:54;;;;;;;9.98;6.28;;;;;;;20.94;72.96;93262.25;6220587;22;20070;-92
2021/07/17 01:03:20;;;;;;;7.32;5.22;;;;;;;20.08;72.70;93123.50;6230014;22;20115;-93
2021/07/17 01:06:10;;;;;;;6.75;5.75;;;;;;;21.11;72.76;93275.88;6231188;22;20120;-92
2021/07/17 01:08:45;;;;;;;9.77;5.95;;;;;;;21.39;72.76;93299.66;6217567;22;20039;-93
2021/07/17 01:11:46;;;;;;;5.95;5.03;;;;;;;21.97;71.89;93374.41;6241411;22;20064;-92
2021/07/17 01:14:21;;;;;;;8.60;5.30;;;;;;;21.96;71.97;93372.88;6222044;22;20031;-92
2021/07/17 01:17:14;;;;;;;11.55;5.47;;;;;;;20.22;71.66;93101.47;6233305;22;20011;-93
2021/07/17 01:19:43;;;;;;;7.78;5.07;;;;;;;20.05;71.79;93086.69;6259213;22;20038;-92
2021/07/17 01:23:01;;;;;;;6.55;4.82;;;;;;;22.02;71.72;93361.41;6263486;22;20100;-93
2021/07/17 01:25:42;;;;;;;5.82;4.95;;;;;;;21.06;71.02;93213.66;6149662;22;20016;-93
2021/07/17 01:32:02;;;;;;;6.45;5.57;;;;;;;21.08;71.34;93212.16;6166797;22;20048;-92
2021/07/17 01:34:28;;;;;;;6.80;5.57;;;;;;;20.26;71.24;93092.31;6261654;22;20007;-93
2021/07/17 01:36:53;;;;;;;10.25;5.75;;;;;;;21.40;71.08;93244.00;6270069;22;20015;-92
2021/07/17 01:39:22;;;;;;;8.90;4.82;;;;;;;20.89;71.60;93188.16;6246112;22;20015;-93
2021/07/17 01:41:49;;;;;;;5.95;5.35;;;;;;;21.47;71.60;93268.22;6251872;22;20023;-92
2021/07/17 01:44:17;;;;;;;5.93;5.03;;;;;;;20.35;71.50;93089.38;6283735;22;20054;-93
2021/07/17 01:47:21;;;;;;;;;;;;;;;;;;;;;
2021/07/17 01:55:52;;;;;;;6.50;4.78;;;;;;;20.41;71.58;93097.88;6186187;23;20016;-92
2021/07/17 01:58:35;;;;;;;5.70;4.88;;;;;;;20.81;72.07;93165.06;6259210;22;20016;-91
2021/07/17 02:01:03;;;;;;;5.28;4.78;;;;;;;21.25;72.40;93253.03;6229697;22;20645;-92
2021/07/17 02:03:58;;;;;;;6.60;5.03;;;;;;;19.94;72.74;93058.94;6246486;22;20084;-92
2021/07/17 02:09:12;;;;;;;7.18;4.55;;;;;;;20.99;73.10;93227.00;6269404;22;20027;-92
2021/07/17 02:12:32;;;;;;;;;;;;;;;;;;;;;
2021/07/17 02:15:31;;;;;;;11.27;5.32;;;;;;;19.75;73.85;93064.44;6247490;22;20031;-94
2021/07/17 02:18:14;;;;;;;4.85;4.45;;;;;;;21.36;74.59;93321.09;6200700;22;20020;-93
2021/07/17 02:20:45;;;;;;;5.78;5.15;;;;;;;19.25;74.39;93002.13;6234337;22;20068;-93
2021/07/17 02:24:02;;;;;;;7.07;5.35;;;;;;;21.22;75.19;93310.97;6289452;22;20015;-93
2021/07/17 02:26:36;;;;;;;6.35;5.68;;;;;;;21.14;75.35;93312.81;6282589;22;20378;-91
2021/07/17 02:32:27;;;;;;;11.63;6.05;;;;;;;20.04;75.35;93133.41;6275674;22;20027;-93
2021/07/17 02:34:58;;;;;;;7.15;5.47;;;;;;;19.87;75.17;93101.78;6174681;22;20015;-93
2021/07/17 02:37:35;;;;;;;;;;;;;;;;;;;;;
2021/07/17 02:40:38;;;;;;;6.60;5.05;;;;;;;21.20;75.74;93315.16;6290089;22;20049;-93
2021/07/17 02:43:17;;;;;;;10.15;5.82;;;;;;;19.34;75.33;93037.47;6284036;22;20037;-93
2021/07/17 02:46:23;;;;;;;8.50;5.50;;;;;;;19.80;75.78;93109.72;6322717;22;20395;-92
2021/07/17 02:49:18;;;;;;;6.50;5.10;;;;;;;19.03;75.91;92995.69;6252302;22;20096;-94
2021/07/17 02:51:54;;;;;;;;;;;;;;;;;;;;;
2021/07/17 02:55:04;;;;;;;8.80;6.18;;;;;;;19.17;75.66;93019.22;6299985;22;20015;-93
2021/07/17 02:57:51;;;;;;;11.27;6.65;;;;;;;19.31;74.27;93064.19;6251458;22;20015;-93
2021/07/17 03:00:24;;;;;;;7.65;5.30;;;;;;;19.09;74.16;93036.31;6255054;22;20015;-92
2021/07/17 03:02:50;;;;;;;6.85;5.50;;;;;;;19.27;74.01;93052.63;6277329;22;20010;-92
2021/07/17 03:05:23;;;;;;;10.15;5.82;;;;;;;19.01;74.45;93015.91;6308329;22;20042;-93
2021/07/17 03:11:10;;;;;;;5.90;5.30;;;;;;;20.98;72.48;93303.34;6205059;22;20094;-93
2021/07/17 03:13:54;;;;;;;11.30;5.53;;;;;;;20.94;72.49;93292.56;6284837;22;20124;-93
2021/07/17 03:16:23;;;;;;;7.22;5.95;;;;;;;20.40;71.51;93209.81;6248742;22;20078;-92
2021/07/17 03:18:56;;;;;;;8.57;5.47;;;;;;;19.81;71.67;93112.03;6275235;22;20019;-92
2021/07/17 03:21:22;;;;;;;7.60;5.43;;;;;;;20.42;70.30;93196.03;6292035;22;20034;-93
2021/07/17 03:23:55;;;;;;;6.63;4.85;;;;;;;19.16;67.93;92996.22;6278408;22;20014;-94
2021/07/17 03:26:33;;;;;;;8.68;4.60;;;;;;;20.56;66.04;93185.47;6291574;22;20026;-92
2021/07/17 03:33:00;;;;;;;6.95;3.83;;;;;;;21.71;60.05;93296.50;6342860;22;20052;-93
2021/07/17 03:35:29;;;;;;;5.82;4.18;;;;;;;20.77;58.58;93130.09;6297019;22;20022;-93
2021/07/17 03:38:04;;;;;;;8.70;4.40;;;;;;;21.43;56.54;93194.84;6314303;22;20073;-93
2021/07/17 03:40:29;;;;;;;;;;;;;;;22.24;55.02;93296.97;6302931;22;20006;-93
2021/07/17 03:42:55;;;;;;;5.05;3.38;;;;;;;20.65;54.31;93032.94;6327814;22;20340;-93
2021/07/17 03:45:33;;;;;;;5.90;3.25;;;;;;;22.73;52.56;93291.97;6293347;22;20022;-93
2021/07/17 03:48:11;;;;;;;3.80;3.08;;;;;;;21.18;51.83;93017.28;6287904;22;20284;-93
2021/07/17 03:50:38;;;;;;;6.60;4.00;;;;;;;21.53;50.01;93014.06;6296096;22;20011;-93
2021/07/17 03:53:27;;;;;;;7.03;3.80;;;;;;;21.80;49.60;93017.25;6288030;22;20421;-94
2021/07/17 03:55:56;;;;;;;5.97;3.15;;;;;;;23.47;48.44;93215.25;6298981;22;19998;-93
2021/07/17 03:58:22;;;;;;;7.03;3.08;;;;;;;22.92;48.09;93082.69;6329654;22;20013;-93
2021/07/17 04:00:51;;;;;;;5.15;3.20;;;;;;;22.99;46.74;93044.97;6286838;22;20495;-93
2021/07/17 04:03:26;;;;;;;6.72;2.80;;;;;;;23.94;46.22;93139.34;6326188;22;20443;-92
2021/07/17 04:06:43;;;;;;;7.63;2.97;;;;;;;23.71;45.00;93064.22;6283146;22;20158;-94
2021/07/17 04:09:29;;;;;;;6.82;2.85;;;;;;;24.23;44.53;93082.63;6299654;22;20089;-93
2021/07/17 04:11:55;;;;;;;7.45;2.90;;;;;;;24.29;43.31;93049.41;6279828;22;20018;-94
2021/07/17 04:14:24;;;;;;;6.38;2.80;;;;;;;26.30;43.14;93296.31;6299329;22;20346;-92
2021/07/17 04:16:58;;;;;;;4.20;2.65;;;;;;;25.07;41.62;93065.22;6330092;22;20425;-93
2021/07/17 04:19:57;;;;;;;;;;;;;;;;;;;;;
2021/07/17 04:23:10;;;;;;;;;;;;;;;;;;;;;
2021/07/17 04:25:46;;;;;;;6.97;3.03;;;;;;;26.42;40.48;93129.78;6290348;22;20203;-93
2021/07/17 04:28:14;;;;;;;8.02;2.70;;;;;;;27.24;40.24;93193.88;6289353;22;20015;-93
2021/07/17 04:31:28;;;;;;;9.27;2.80;;;;;;;27.10;39.05;93106.13;6330368;22;20018;-92
2021/07/17 04:37:33;;;;;;;8.90;3.45;;;;;;;28.29;38.86;93283.19;6280354;22;20072;-92
2021/07/17 04:43:59;;;;;;;5.05;3.40;;;;;;;27.22;37.99;93082.31;6277536;22;20027;-94
2021/07/17 04:46:38;;;;;;;2.88;2.33;;;;;;;27.75;36.99;93066.00;6275367;22;20046;-93
2021/07/17 04:57:51;;;;;;;8.07;3.67;;;;;;;29.92;34.66;93152.88;6309769;22;20022;-93
2021/07/17 05:00:57;;;;;;;9.18;3.38;;;;;;;30.30;34.64;93180.34;6284509;22;20015;-93
2021/07/17 05:14:16;;;;;;;11.40;3.58;;;;;;;29.54;35.09;93098.13;6108611;23;20182;-94
2021/07/17 05:24:55;;;;;;;10.77;3.67;;;;;;;29.12;34.58;93012.78;5964400;23;20012;-95
2021/07/17 05:38:12;;;;;;;12.65;3.70;;;;;;;29.11;36.41;93111.16;5962590;23;20180;-93
2021/07/17 05:45:13;;;;;;;;;;;;;;;;;;;;;
2021/07/17 05:51:36;;;;;;;;;;;;;;;;;;;;;
2021/07/17 05:54:02;;;;;;;11.75;5.30;;;;;;;28.02;38.15;93036.78;6058504;23;20020;-94
2021/07/17 05:57:17;;;;;;;19.65;5.50;;;;;;;28.70;38.72;93207.50;6043950;23;20256;-93
2021/07/17 06:03:57;;;;;;;7.88;4.32;;;;;;;26.38;40.45;93018.00;5942117;23;20023;-95
2021/07/17 06:13:51;;;;;;;7.63;3.80;;;;;;;27.41;41.65;93252.59;5987772;23;20455;-95
2021/07/17 06:17:11;;;;;;;10.85;4.53;;;;;;;26.27;42.61;93091.25;6018220;23;20038;-96
2021/07/17 06:24:14;;;;;;;;;;;;;;;;;;;;;
2021/07/17 06:40:44;;;;;;;7.72;2.72;;;;;;;25.71;36.84;92959.97;6227064;22;20045;-95
2021/07/17 06:51:09;;;;;;;;;;;;;;;;;;;;;
2021/07/17 06:54:22;;;;;;;6.57;2.80;;;;;;;27.71;36.18;93227.41;6037885;23;20010;-94
2021/07/17 07:01:03;;;;;;;;;;;;;;;;;;;;;
2021/07/17 07:06:59;;;;;;;9.38;3.05;;;;;;;27.33;34.91;93096.47;6030864;23;20019;-94
2021/07/17 07:09:26;;;;;;;10.45;2.90;;;;;;;26.33;35.17;92974.34;6032787;23;20631;-93
2021/07/17 07:11:57;;;;;;;7.07;2.97;;;;;;;26.28;35.34;92989.88;6158218;23;20023;-95
2021/07/17 07:14:25;;;;;;;13.05;3.05;;;;;;;26.21;35.42;92981.03;6162696;23;20108;-93
2021/07/17 07:17:08;;;;;;;;;;;;;;;;;;;;;
2021/07/17 07:19:52;;;;;;;6.63;3.53;;;;;;;25.90;36.05;92934.25;6202176;23;20008;-96
2021/07/17 07:22:29;;;;;;;6.47;2.65;;;;;;;26.23;35.90;92976.78;6167237;23;20519;-94
2021/07/17 07:25:11;;;;;;;7.60;2.58;;;;;;;27.80;35.43;93216.78;6154634;23;20104;-95
2021/07/17 07:28:01;;;;;;;11.60;3.55;;;;;;;26.11;35.99;92965.69;6137010;23;20056;-95
2021/07/17 07:30:50;;;;;;;6.57;2.72;;;;;;;27.25;36.39;93141.19;6150022;22;20349;-94
2021/07/17 07:34:04;;;;;;;;;;;;;;;;;;;;;
2021/07/17 07:36:52;;;;;;;14.15;3.72;;;;;;;26.55;36.22;93030.53;6282644;22;20521;-95
2021/07/17 07:39:40;;;;;;;;;;;;;;;;;;;;;
2021/07/17 07:42:17;;;;;;;5.72;2.70;;;;;;;27.20;36.63;93133.50;6292428;22;20022;-93
2021/07/17 07:45:04;;;;;;;10.40;2.70;;;;;;;26.10;37.29;92980.38;6247302;22;20015;-94
2021/07/17 07:47:56;;;;;;;6.32;2.45;;;;;;;27.21;37.58;93127.66;6259615;22;20098;-96
2021/07/17 07:53:26;;;;;;;7.40;2.85;;;;;;;26.55;37.98;92995.31;6281510;22;20386;-94
2021/07/17 07:56:56;;;;;;;7.70;3.13;;;;;;;26.88;38.18;93058.03;6258726;22;20007;-94
2021/07/17 07:59:22;;;;;;;6.95;2.95;;;;;;;28.22;36.45;93250.69;6278574;22;20015;-94
2021/07/17 08:02:56;;;;;;;6.40;2.78;;;;;;;26.97;35.78;93023.81;6293088;22;20007;-96
2021/07/17 08:05:40;;;;;;;7.05;2.58;;;;;;;28.52;36.28;93242.41;6109189;23;20069;-94
2021/07/17 08:08:07;;;;;;;8.88;2.80;;;;;;;27.17;35.55;93007.63;6153708;23;20465;-94
2021/07/17 08:10:39;;;;;;;16.65;3.20;;;;;;;27.09;36.13;92998.03;6168625;22;20008;-94
2021/07/17 08:13:08;;;;;;;6.25;2.42;;;;;;;27.16;35.95;92992.53;6282517;22;20026;-96
2021/07/17 08:15:34;;;;;;;15.88;3.67;;;;;;;27.74;35.61;93094.31;6292762;22;20022;-96
2021/07/17 08:18:03;;;;;;;3.65;2.67;;;;;;;27.15;35.59;93005.31;6297656;22;20023;-95
2021/07/17 08:20:48;;;;;;;;;;;;;;;;;;;;;
2021/07/17 08:23:14;;;;;;;5.35;3.13;;;;;;;27.37;35.20;93003.00;6281683;22;20272;-96
2021/07/17 08:25:40;;;;;;;10.40;2.45;;;;;;;28.00;36.00;93076.41;6294098;22;20119;-94
2021/07/17 08:28:20;;;;;;;7.70;3.00;;;;;;;27.65;35.84;93007.22;6306419;22;20010;-94
2021/07/17 08:31:12;;;;;;;6.10;2.85;;;;;;;28.21;36.02;93081.47;6293811;22;20216;-94
2021/07/17 08:33:45;;;;;;;6.20;3.25;;;;;;;27.86;35.29;92998.66;6306799;22;20015;-95
2021/07/17 08:36:11;;;;;;;20.00;3.58;;;;;;;27.91;35.17;92986.56;6292844;22;20022;-95
2021/07/17 08:38:55;;;;;;;9.43;3.13;;;;;;;27.92;35.19;92994.28;6300374;22;20354;-96
2021/07/17 08:41:26;;;;;;;6.30;2.63;;;;;;;28.89;33.68;93123.66;6294146;22;20011;-95
2021/07/17 08:44:31;;;;;;;11.07;3.60;;;;;;;28.96;33.93;93134.38;6278546;22;20026;-95
2021/07/17 08:47:09;;;;;;;7.68;3.25;;;;;;;28.50;35.00;93051.78;6212370;22;20028;-94
2021/07/17 08:49:55;;;;;;;5.35;2.42;;;;;;;29.06;34.05;93106.19;6232668;23;20268;-94
2021/07/17 08:52:34;;;;;;;8.20;2.47;;;;;;;29.05;33.87;93126.41;6180183;23;20307;-95
2021/07/17 08:55:07;;;;;;;9.18;2.55;;;;;;;27.96;33.74;92956.97;6205029;23;20031;-95
2021/07/17 08:57:35;;;;;;;11.82;2.58;;;;;;;29.05;33.67;93140.03;6175123;23;20487;-94
2021/07/17 09:00:17;;;;;;;11.10;3.38;;;;;;;29.42;33.90;93199.50;6208662;23;20021;-95
2021/07/17 09:02:52;;;;;;;5.38;3.22;;;;;;;28.82;33.90;93092.72;6175182;23;20084;-94
2021/07/17 09:05:23;;;;;;;;;;;;;;;29.53;34.19;93199.28;6151977;23;20104;-95
2021/07/17 09:07:49;;;;;;;4.70;2.90;;;;;;;28.65;34.29;93055.75;6205986;23;19986;-95
2021/07/17 09:10:50;;;;;;;9.73;2.28;;;;;;;29.66;33.06;93203.63;6255690;22;20008;-96
2021/07/17 09:13:25;;;;;;;11.90;3.15;;;;;;;29.31;33.22;93125.50;6239419;22;20019;-95
2021/07/17 09:15:53;;;;;;;11.30;3.17;;;;;;;29.90;32.63;93187.97;6264017;22;20023;-94
2021/07/17 09:18:46;;;;;;;15.40;3.03;;;;;;;29.99;32.01;93187.34;6305752;22;20019;-93
2021/07/17 09:21:17;;;;;;;4.63;2.03;;;;;;;30.07;31.46;93196.88;6277303;22;20481;-94
2021/07/17 09:23:55;;;;;;;12.45;3.92;;;;;;;28.59;31.57;92973.16;6303612;22;20076;-93
2021/07/17 09:26:27;;;;;;;9.73;2.38;;;;;;;28.76;32.08;92971.25;6304273;22;20029;-92
2021/07/17 09:29:07;;;;;;;7.28;2.42;;;;;;;29.39;31.01;93063.50;6315493;22;20455;-92
2021/07/17 09:31:52;;;;;;;5.85;1.80;;;;;;;28.80;30.48;92980.88;6304838;22;19998;-93
2021/07/17 09:34:22;;;;;;;4.38;2.25;;;;;;;30.15;30.94;93184.63;6298552;22;20022;-91
2021/07/17 09:37:00;;;;;;;9.85;2.78;;;;;;;30.23;32.30;93174.31;6297321;22;20026;-93
2021/07/17 09:39:35;;;;;;;7.88;1.92;;;;;;;29.86;30.47;93096.59;6285337;22;20045;-91
2021/07/17 09:42:14;;;;;;;8.88;2.75;;;;;;;30.50;30.51;93178.28;6285325;22;20019;-92
2021/07/17 09:44:55;;;;;;;4.80;2.03;;;;;;;29.47;30.77;93000.28;6284948;22;20014;-92
2021/07/17 09:47:26;;;;;;;4.13;2.28;;;;;;;30.58;30.69;93161.75;6303185;22;20030;-92
2021/07/17 09:50:21;;;;;;;6.15;2.90;;;;;;;30.18;29.80;93080.22;6296641;22;20035;-91
2021/07/17 09:53:13;;;;;;;;;;;;;;;;;;;;;
2021/07/17 09:55:44;;;;;;;;;;;;;;;30.95;29.93;93158.38;6303658;22;19930;-92
2021/07/17 09:58:13;;;;;;;3.70;2.40;;;;;;;30.49;29.58;93084.09;6309579;22;19902;-94
2021/07/17 10:00:41;;;;;;;6.43;2.15;;;;;;;29.49;29.28;92943.47;6332032;22;20017;-94
2021/07/17 10:07:18;;;;;;;8.05;2.83;;;;;;;29.97;30.68;92994.34;6212722;22;20005;-92
2021/07/17 10:10:32;;;;;;;9.13;2.60;;;;;;;29.51;29.14;92908.44;6284041;22;20015;-93
2021/07/17 10:13:24;;;;;;;8.18;2.38;;;;;;;29.97;29.83;92967.13;6254449;22;20944;-93
2021/07/17 10:16:01;;;;;;;13.00;2.90;;;;;;;30.10;29.40;92953.53;6247267;22;20019;-93
2021/07/17 10:18:31;;;;;;;2.90;2.00;;;;;;;31.38;28.87;93158.69;6235741;22;20110;-95
2021/07/17 10:21:07;;;;;;;8.68;3.10;;;;;;;30.82;28.20;93094.84;6257213;22;20050;-92
2021/07/17 10:23:33;;;;;;;9.48;2.47;;;;;;;30.24;28.26;93029.44;6273062;22;20031;-93
2021/07/17 10:26:09;;;;;;;11.38;2.65;;;;;;;29.86;28.97;92966.59;6272533;22;20023;-93
2021/07/17 10:28:43;;;;;;;4.78;2.03;;;;;;;29.80;28.33;92937.63;6272304;22;20027;-93
2021/07/17 10:31:09;;;;;;;5.70;2.75;;;;;;;29.88;28.57;92930.78;6257464;22;20102;-93
2021/07/17 10:34:25;;;;;;;4.03;2.97;;;;;;;29.94;28.16;92934.53;6278358;22;20069;-94
2021/07/17 10:38:01;;;;;;;;;;;;;;;;;;;;;
2021/07/17 10:40:56;;;;;;;5.50;2.63;;;;;;;30.03;28.48;92951.00;6143569;22;20023;-93
2021/07/17 10:43:26;;;;;;;4.65;2.47;;;;;;;30.69;28.49;93069.50;6272988;22;20354;-93
2021/07/17 10:46:28;;;;;;;9.00;2.72;;;;;;;29.90;28.71;92928.41;6266459;22;20096;-93
2021/07/17 10:49:23;;;;;;;;;;;;;;;;;;;;;
2021/07/17 10:51:58;;;;;;;4.13;1.98;;;;;;;30.49;29.33;92938.81;6312240;22;20094;-92
2021/07/17 10:54:27;;;;;;;;;;;;;;;31.85;28.64;93130.75;6255709;22;20082;-94
2021/07/17 10:57:11;;;;;;;5.40;2.35;;;;;;;30.46;28.65;92909.69;6289205;22;19911;-95
2021/07/17 11:00:07;;;;;;;4.43;2.20;;;;;;;30.42;28.49;92915.22;6301196;22;20026;-93
2021/07/17 11:03:30;;;;;;;;;;;;;;;;;;;;;
2021/07/17 11:09:48;;;;;;;7.03;2.63;;;;;;;31.05;29.19;93004.53;6302878;22;20009;-94
2021/07/17 11:13:12;;;;;;;7.25;2.80;;;;;;;31.71;28.81;93090.25;6301877;22;20022;-93
2021/07/17 11:15:32;;;;;;;;;;;;;;;;;;;;;
2021/07/17 11:18:33;;;;;;;7.95;2.72;;;;;;;31.88;27.78;93108.00;6317699;22;20489;-94
2021/07/17 11:21:00;;;;;;;4.07;2.97;;;;;;;30.42;28.24;92915.22;6302810;22;20027;-94
2021/07/17 11:23:35;;;;;;;8.98;2.88;;;;;;;30.82;28.45;92961.19;6321256;22;20010;-94
2021/07/17 11:29:36;;;;;;;9.82;2.67;;;;;;;30.23;28.46;92880.75;6326876;22;20010;-93
2021/07/17 11:32:15;;;;;;;8.38;2.95;;;;;;;31.06;28.42;93011.53;6285228;22;20002;-93
2021/07/17 11:35:19;;;;;;;8.30;2.47;;;;;;;31.79;29.04;93105.19;6300510;22;20055;-93
2021/07/17 11:38:31;;;;;;;7.47;2.55;;;;;;;30.61;28.40;92897.16;6293230;22;20451;-94
2021/07/17 11:40:57;;;;;;;5.03;2.30;;;;;;;30.95;28.96;92937.38;6275603;22;20035;-94
2021/07/17 11:43:26;;;;;;;8.02;3.15;;;;;;;31.47;27.64;92990.75;6271735;22;20007;-94
2021/07/17 11:47:00;;;;;;;9.23;2.45;;;;;;;31.40;28.18;92991.72;6320597;22;20027;-94
2021/07/17 11:49:56;;;;;;;;;;;;;;;;;;;;;
2021/07/17 11:53:11;;;;;;;7.30;3.00;;;;;;;31.38;27.90;92981.22;6229169;22;20361;-95
2021/07/17 11:56:43;;;;;;;;;;;;;;;;;;;;;
2021/07/17 11:59:34;;;;;;;;;;;;;;;;;;;;;
2021/07/17 12:02:26;;;;;;;5.88;2.83;;;;;;;32.31;27.88;93062.88;6209803;23;20013;-95
2021/07/17 12:05:40;;;;;;;;;;;;;;;;;;;;;
2021/07/17 12:12:13;;;;;;;6.00;2.55;;;;;;;31.85;27.02;92988.69;5958745;23;20020;-95
2021/07/17 12:15:41;;;;;;;7.18;3.30;;;;;;;31.41;26.41;92900.44;6017480;23;20479;-94
2021/07/17 12:36:26;;;;;;;;;;;;;;;;;;;;;
2021/07/17 12:39:36;;;;;;;;;;;;;;;;;;;;;
2021/07/17 12:45:52;;;;;;;6.53;3.50;;;;;;;32.07;30.79;92967.59;5971415;23;20063;-95
2021/07/17 12:48:17;;;;;;;7.20;3.70;;;;;;;32.35;29.90;93077.19;6007205;23;20033;-94
2021/07/17 12:51:06;;;;;;;6.22;3.42;;;;;;;31.72;30.59;92958.66;6065500;23;20439;-94
2021/07/17 12:57:22;;;;;;;7.78;3.88;;;;;;;32.20;31.68;92976.53;6116142;23;20156;-94
2021/07/17 13:00:27;;;;;;;10.38;4.18;;;;;;;30.93;30.15;92792.47;6071200;23;20089;-96
2021/07/17 13:07:14;;;;;;;;;;;;;;;;;;;;;
2021/07/17 13:09:54;;;;;;;6.63;4.20;;;;;;;32.24;28.20;92958.03;6103495;23;20540;-96
2021/07/17 13:38:30;;;;;;;;;;;;;;;;;;;;;
2021/07/17 13:42:05;;;;;;;;;;;;;;;;;;;;;
2021/07/17 13:48:29;;;;;;;12.57;4.38;;;;;;;30.59;32.52;92759.75;6030857;23;20215;-93
2021/07/17 13:51:42;;;;;;;5.03;4.43;;;;;;;32.27;33.81;93002.09;5945478;23;20023;-93
2021/07/17 14:04:51;;;;;;;10.00;5.00;;;;;;;31.42;34.67;92919.09;6282919;22;20363;-93
2021/07/17 15:23:01;;;;;;;10.40;5.25;;;;;;;30.66;35.69;92808.56;6224542;22;20417;-90
2021/07/17 15:25:27;;;;;;;8.02;4.45;;;;;;;30.00;36.06;92732.00;6233918;23;20087;-91
2021/07/17 15:27:52;;;;;;;8.85;4.25;;;;;;;30.32;35.81;92784.72;6205312;23;20019;-90
2021/07/17 15:30:18;;;;;;;10.82;4.18;;;;;;;31.17;35.91;92935.53;6233460;22;20435;-91
2021/07/17 15:33:15;;;;;;;13.95;5.00;;;;;;;29.84;35.59;92742.19;6230283;22;20012;-91
2021/07/17 15:35:46;;;;;;;8.80;3.80;;;;;;;29.68;36.19;92711.13;6190731;23;20457;-89
2021/07/17 15:38:13;;;;;;;7.22;3.92;;;;;;;29.59;36.21;92708.31;6203621;22;20328;-91
2021/07/17 15:40:40;;;;;;;7.15;4.20;;;;;;;30.20;35.90;92791.72;6234987;23;20099;-91
2021/07/17 15:43:06;;;;;;;11.13;4.25;;;;;;;30.17;36.00;92800.75;6236232;22;20063;-89
2021/07/17 15:45:35;;;;;;;7.15;4.32;;;;;;;29.59;35.99;92727.38;6239160;22;20020;-90
2021/07/17 15:48:05;;;;;;;9.07;4.07;;;;;;;30.94;35.96;92936.63;6209225;23;20671;-90
2021/07/17 15:50:31;;;;;;;5.97;4.30;;;;;;;30.26;36.30;92814.47;6211259;23;20015;-90
2021/07/17 15:53:06;;;;;;;8.07;4.95;;;;;;;30.62;35.91;92851.56;6192747;22;20011;-90
2021/07/17 15:55:32;;;;;;;11.15;5.30;;;;;;;31.23;36.02;92941.94;6211185;23;20000;-90
2021/07/17 15:58:02;;;;;;;10.65;4.63;;;;;;;30.77;35.35;92861.59;6233190;22;20471;-89
2021/07/17 16:00:30;;;;;;;10.57;4.68;;;;;;;30.80;35.10;92865.38;6208162;23;20637;-90
2021/07/17 16:02:55;;;;;;;12.15;5.32;;;;;;;29.88;35.87;92727.25;6233931;22;20047;-91
2021/07/17 16:05:21;;;;;;;9.35;5.13;;;;;;;30.06;35.66;92759.44;6203228;23;20337;-90
2021/07/17 16:07:54;;;;;;;6.05;4.65;;;;;;;30.38;36.16;92800.09;6209901;23;20015;-90
2021/07/17 16:10:20;;;;;;;12.65;4.35;;;;;;;30.76;36.46;92856.56;6205813;23;20089;-90
2021/07/17 16:12:45;;;;;;;7.00;4.90;;;;;;;30.22;36.44;92786.56;6209817;23;20020;-90
2021/07/17 16:15:11;;;;;;;6.80;4.68;;;;;;;30.57;36.55;92849.38;6229635;22;20020;-90
2021/07/17 16:18:00;;;;;;;;;;;;;;;;;;;;;
2021/07/17 16:20:29;;;;;;;11.68;4.60;;;;;;;29.33;36.28;92684.22;6225461;22;20036;-90
2021/07/17 16:22:54;;;;;;;18.38;6.30;;;;;;;30.42;36.17;92851.75;6266792;22;20031;-90
2021/07/17 16:25:20;;;;;;;9.43;4.53;;;;;;;30.90;35.96;92929.75;6265151;22;20363;-90
2021/07/17 16:27:46;;;;;;;8.15;4.10;;;;;;;30.47;35.55;92867.59;6251747;22;20434;-90
2021/07/17 16:30:30;;;;;;;6.28;4.20;;;;;;;29.44;33.99;92698.28;6231099;22;20086;-90
2021/07/17 16:33:04;;;;;;;6.63;3.53;;;;;;;29.44;33.85;92723.53;6229814;23;20204;-89
2021/07/17 16:35:38;;;;;;;17.85;3.67;;;;;;;30.39;33.08;92855.38;6233755;23;20031;-90
2021/07/17 16:38:08;;;;;;;7.37;3.97;;;;;;;30.82;33.28;92931.94;6236398;22;20012;-90
2021/07/17 16:40:36;;;;;;;11.73;4.28;;;;;;;29.05;33.56;92672.16;6235073;22;20012;-89
2021/07/17 16:43:02;;;;;;;9.43;3.25;;;;;;;30.79;33.31;92927.34;6232175;23;20023;-89
2021/07/17 16:45:28;;;;;;;6.30;3.75;;;;;;;30.00;33.46;92823.84;6235878;23;20023;-91
2021/07/17 16:48:53;;;;;;;;;;;;;;;;;;;;;
2021/07/17 19:06:13;;;;;;;6.30;3.25;;;;;;;28.56;35.75;93020.22;6244877;22;20058;-94
2021/07/17 19:33:15;;;;;;;10.93;3.13;;;;;;;27.52;37.09;92939.19;6325439;22;20015;-95
2021/07/17 20:57:39;;;;;;;10.65;3.58;;;;;;;27.40;39.13;93033.97;4791918;22;32954868;-96
2021/07/17 21:20:22;;;;;;;7.13;3.20;;;;;;;27.12;37.07;93051.47;6130452;23;20013;-96
2021/07/17 22:48:40;;;;;;;;;;;;;;;;;;;;;
2021/07/17 23:45:27;;;;;;;;;;;;;;;;;;;;;
2021/07/17 23:53:26;;;;;;;5.93;3.30;;;;;;;23.68;44.10;92765.59;6233060;22;20016;-96
